Time;durP1;ratioP1;P1;durP2;ratioP2;P2;SDS_P1;SDS_P2;PMS_P1;PMS_P2;Temp;Humidity;BMP_temperature;BMP_pressure;BME280_temperature;BME280_humidity;BME280_pressure;Samples;Min_cycle;Max_cycle;Signal;HPM_P1;HPM_P2
2022/05/22 00:00:26;224013.00;0.75;387.25;0.00;0.00;0.62;;;;;19.60;1.00;;;;;;2264662;61;1819;-87
2022/05/22 00:02:54;246102.00;0.82;425.25;0.00;0.00;0.62;;;;;19.50;1.00;;;;;;2264722;61;1242;-87
2022/05/22 00:05:24;808563.00;2.70;1396.06;34632.00;0.12;60.60;;;;;19.30;1.00;;;;;;2264730;61;1137;-87
2022/05/22 00:07:52;37779.00;0.13;66.05;0.00;0.00;0.62;;;;;19.50;1.00;;;;;;2264728;61;1596;-87
2022/05/22 00:10:21;208295.00;0.69;360.20;0.00;0.00;0.62;;;;;19.60;1.00;;;;;;2264674;61;2009;-85
2022/05/22 00:12:48;88954.00;0.30;154.50;0.00;0.00;0.62;;;;;19.40;1.00;;;;;;2264720;61;1242;-86
2022/05/22 00:15:17;0.00;0.00;0.62;0.00;0.00;0.62;;;;;19.60;1.00;;;;;;2264678;61;1271;-85
2022/05/22 00:17:45;38932.00;0.13;68.04;0.00;0.00;0.62;;;;;19.10;1.00;;;;;;2264738;61;1051;-86
2022/05/22 00:20:13;23841.00;0.08;41.92;0.00;0.00;0.62;;;;;19.00;1.00;;;;;;2264744;61;1299;-89
2022/05/22 00:22:41;42766.00;0.14;74.67;0.00;0.00;0.62;;;;;19.30;1.00;;;;;;2264638;61;1283;-86
2022/05/22 00:25:11;243704.00;0.81;421.12;0.00;0.00;0.62;;;;;19.70;1.00;;;;;;2264750;61;1155;-84
2022/05/22 00:27:40;93178.00;0.31;161.79;0.00;0.00;0.62;;;;;19.40;1.00;;;;;;2264647;61;1136;-86
2022/05/22 00:30:09;70843.00;0.24;123.22;0.00;0.00;0.62;;;;;19.30;1.00;;;;;;2264334;61;2208;-86
2022/05/22 00:32:37;56889.00;0.19;99.10;0.00;0.00;0.62;;;;;18.80;1.00;;;;;;2264499;61;1357;-83
2022/05/22 00:35:05;298529.00;1.00;515.39;0.00;0.00;0.62;;;;;18.80;1.00;;;;;;2264666;61;1065;-87
2022/05/22 00:37:32;275254.00;0.92;475.38;34522.00;0.12;60.41;;;;;18.80;1.00;;;;;;2264534;61;1604;-86
2022/05/22 00:40:01;304042.00;1.01;524.87;31004.00;0.10;54.32;;;;;18.70;1.00;;;;;;2264677;61;1237;-84
2022/05/22 00:42:28;4522.00;0.02;8.46;0.00;0.00;0.62;;;;;18.60;1.00;;;;;;2264559;61;1338;-85
2022/05/22 00:44:56;264685.00;0.88;457.20;0.00;0.00;0.62;;;;;18.00;1.00;;;;;;2264572;61;1095;-89
2022/05/22 00:47:24;35960.00;0.12;62.90;0.00;0.00;0.62;;;;;17.80;1.00;;;;;;2264605;61;1103;-88
2022/05/22 00:49:59;342139.00;1.14;590.35;89224.00;0.30;154.97;;;;;17.80;1.00;;;;;;2264547;61;1992;-85
2022/05/22 00:52:33;104545.00;0.35;181.42;0.00;0.00;0.62;;;;;17.90;1.00;;;;;;2264597;61;1559;-85
2022/05/22 00:55:08;36182.00;0.12;63.28;0.00;0.00;0.62;;;;;18.10;1.00;;;;;;2264599;61;992;-84
2022/05/22 00:57:40;29587.00;0.10;51.87;0.00;0.00;0.62;;;;;18.40;1.00;;;;;;2264562;61;1645;-88
2022/05/22 01:00:13;28101.00;0.09;49.30;0.00;0.00;0.62;;;;;18.50;1.00;;;;;;2264540;61;1069;-87
2022/05/22 01:05:25;153603.00;0.51;266.02;0.00;0.00;0.62;;;;;18.50;1.00;;;;;;2264488;61;780;-83
2022/05/22 01:07:52;98370.00;0.33;170.76;0.00;0.00;0.62;;;;;18.30;1.00;;;;;;2264533;61;1100;-85
2022/05/22 01:10:21;13270.00;0.04;23.61;0.00;0.00;0.62;;;;;18.70;1.00;;;;;;2264383;61;1981;-87
2022/05/22 01:12:50;0.00;0.00;0.62;0.00;0.00;0.62;;;;;19.10;1.00;;;;;;2264504;61;1475;-86
2022/05/22 01:15:17;0.00;0.00;0.62;0.00;0.00;0.62;;;;;19.30;1.00;;;;;;2264579;61;1024;-87
2022/05/22 01:17:48;67411.00;0.22;117.29;0.00;0.00;0.62;;;;;19.40;1.00;;;;;;2264448;61;977;-83
2022/05/22 01:20:16;47749.00;0.16;83.29;0.00;0.00;0.62;;;;;19.10;1.00;;;;;;2264415;61;1066;-83
2022/05/22 01:22:45;179859.00;0.60;311.25;0.00;0.00;0.62;;;;;19.10;1.00;;;;;;2264362;61;1332;-84
2022/05/22 01:25:12;160528.00;0.54;277.95;0.00;0.00;0.62;;;;;19.20;1.00;;;;;;2264502;61;1325;-86
2022/05/22 01:27:40;80518.00;0.27;139.93;0.00;0.00;0.62;;;;;19.20;1.00;;;;;;2264513;61;1088;-86
2022/05/22 01:30:11;24563.00;0.08;43.17;0.00;0.00;0.62;;;;;19.10;1.00;;;;;;2264511;61;1916;-87
2022/05/22 01:32:40;161668.00;0.54;279.91;0.00;0.00;0.62;;;;;19.10;1.00;;;;;;2264457;61;1375;-89
2022/05/22 01:35:08;323899.00;1.08;559.00;0.00;0.00;0.62;;;;;19.00;1.00;;;;;;2264441;61;1107;-85
2022/05/22 01:37:35;155182.00;0.52;268.74;0.00;0.00;0.62;;;;;19.20;1.00;;;;;;2264456;61;1736;-86
2022/05/22 01:40:05;539433.00;1.80;929.75;84185.00;0.28;146.27;;;;;19.20;1.00;;;;;;2264358;61;1124;-85
2022/05/22 01:42:32;450995.00;1.50;777.49;38892.00;0.13;67.97;;;;;19.30;1.00;;;;;;2264444;61;1368;-88
2022/05/22 01:44:59;599556.00;2.00;1033.45;41425.00;0.14;72.35;;;;;19.40;1.00;;;;;;2264528;61;1128;-89
2022/05/22 01:47:26;548015.00;1.83;944.54;17669.00;0.06;31.23;;;;;19.40;1.00;;;;;;2264327;61;1256;-88
2022/05/22 01:49:53;470051.00;1.57;810.28;19719.00;0.07;34.78;;;;;19.30;1.00;;;;;;2264469;61;1074;-88
2022/05/22 01:52:20;443991.00;1.48;765.45;11042.00;0.04;19.75;;;;;18.80;1.00;;;;;;2264229;61;2039;-85
2022/05/22 01:54:47;566567.00;1.89;976.53;9493.00;0.03;17.07;;;;;18.40;1.00;;;;;;2264407;61;1029;-86
2022/05/22 01:57:15;687972.00;2.29;1186.39;25173.00;0.08;44.23;;;;;18.30;1.00;;;;;;2264342;61;1145;-88
2022/05/22 01:59:43;762333.00;2.54;1315.51;40200.00;0.13;70.23;;;;;18.20;1.00;;;;;;2264264;61;1555;-86
2022/05/22 02:02:10;479973.00;1.60;827.35;9707.00;0.03;17.44;;;;;18.60;1.00;;;;;;2264396;61;1199;-87
2022/05/22 02:04:37;540757.00;1.80;932.03;6669.00;0.02;12.18;;;;;18.50;1.00;;;;;;2264376;61;1259;-85
2022/05/22 02:09:48;15271.00;0.05;27.08;0.00;0.00;0.62;;;;;18.40;1.00;;;;;;2264352;61;1027;-86
2022/05/22 02:12:17;201912.00;0.67;349.21;0.00;0.00;0.62;;;;;18.40;1.00;;;;;;2264371;61;2001;-84
2022/05/22 02:14:44;366777.00;1.22;632.70;0.00;0.00;0.62;;;;;18.40;1.00;;;;;;2264305;61;1489;-90
2022/05/22 02:17:11;400059.00;1.33;689.91;0.00;0.00;0.62;;;;;18.20;1.00;;;;;;2264309;61;1103;-87
2022/05/22 02:19:38;621587.00;2.07;1071.51;9049.00;0.03;16.30;;;;;18.10;1.00;;;;;;2264345;61;903;-86
2022/05/22 02:22:08;687648.00;2.29;1185.83;0.00;0.00;0.62;;;;;18.00;1.00;;;;;;2264400;61;942;-87
2022/05/22 02:24:36;577854.00;1.93;996.00;19044.00;0.06;33.61;;;;;18.00;1.00;;;;;;2264302;61;1401;-86
2022/05/22 02:27:06;695040.00;2.32;1198.64;11488.00;0.04;20.53;;;;;18.50;1.00;;;;;;2264297;61;1606;-87
2022/05/22 02:29:34;434434.00;1.45;749.01;0.00;0.00;0.62;;;;;18.70;1.00;;;;;;2264352;61;1159;-89
2022/05/22 02:32:02;618768.00;2.06;1066.64;52350.00;0.17;91.25;;;;;18.40;1.00;;;;;;2264202;61;1923;-87
2022/05/22 02:34:29;1090899.00;3.64;1894.16;225457.00;0.75;389.73;;;;;18.00;1.00;;;;;;2264221;61;1415;-83
2022/05/22 02:36:56;923010.00;3.08;1596.57;60265.00;0.20;104.93;;;;;17.80;1.00;;;;;;2264237;61;1238;-89
2022/05/22 02:39:23;695395.00;2.32;1199.25;136665.00;0.46;236.82;;;;;18.00;1.00;;;;;;2264266;61;1663;-86
2022/05/22 02:41:50;543344.00;1.81;936.49;35682.00;0.12;62.42;;;;;17.90;1.00;;;;;;2264202;61;1126;-87
2022/05/22 02:44:17;621060.00;2.07;1070.60;44631.00;0.15;77.90;;;;;17.80;1.00;;;;;;2264268;61;1381;-88
2022/05/22 02:46:45;929650.00;3.10;1608.26;53893.00;0.18;93.92;;;;;18.10;1.00;;;;;;2264185;61;1127;-87
2022/05/22 02:49:12;697869.00;2.33;1203.54;30689.00;0.10;53.78;;;;;18.40;1.00;;;;;;2264232;61;1163;-86
2022/05/22 02:51:39;627855.00;2.09;1082.34;0.00;0.00;0.62;;;;;18.60;1.00;;;;;;2264260;61;2013;-87
2022/05/22 02:54:06;494042.00;1.65;851.57;37656.00;0.13;65.83;;;;;18.90;1.00;;;;;;2264845;61;1558;-86
2022/05/22 02:56:33;609434.00;2.03;1050.51;8077.00;0.03;14.62;;;;;19.00;1.00;;;;;;2264979;61;1117;-88
2022/05/22 02:59:00;541696.00;1.81;933.65;39318.00;0.13;68.71;;;;;18.80;1.00;;;;;;2264955;61;1098;-87
2022/05/22 03:01:27;917993.00;3.06;1587.74;13212.00;0.04;23.51;;;;;18.50;1.00;;;;;;2264922;61;1284;-88
2022/05/22 03:03:55;676026.00;2.25;1165.69;16819.00;0.06;29.76;;;;;18.50;1.00;;;;;;2264923;61;1368;-88
2022/05/22 03:06:41;958220.00;3.19;1658.61;32650.00;0.11;57.17;;;;;18.80;1.00;;;;;;2264897;61;1040;-88
2022/05/22 03:09:10;168749.00;0.56;292.11;0.00;0.00;0.62;;;;;18.60;1.00;;;;;;2264777;61;1738;-86
2022/05/22 03:11:38;460254.00;1.53;793.42;0.00;0.00;0.62;;;;;18.90;1.00;;;;;;2264801;61;1918;-83
2022/05/22 03:14:06;332288.00;1.11;573.42;22433.00;0.07;39.48;;;;;18.90;1.00;;;;;;2264810;61;1616;-90
2022/05/22 03:16:34;472783.00;1.58;814.98;8374.00;0.03;15.13;;;;;18.70;1.00;;;;;;2264926;61;1192;-89
2022/05/22 03:19:03;186173.00;0.62;322.12;0.00;0.00;0.62;;;;;18.20;1.00;;;;;;2264839;61;1770;-84
2022/05/22 03:21:30;59233.00;0.20;103.15;0.00;0.00;0.62;;;;;18.00;1.00;;;;;;2264829;61;1073;-87
2022/05/22 03:23:57;442771.00;1.48;763.35;36223.00;0.12;63.35;;;;;17.70;1.00;;;;;;2264807;61;1277;-89
2022/05/22 03:26:24;448354.00;1.49;772.95;32718.00;0.11;57.29;;;;;17.50;1.00;;;;;;2264770;61;1708;-87
2022/05/22 03:28:52;420022.00;1.40;724.23;5483.00;0.02;10.12;;;;;17.60;1.00;;;;;;2264755;61;1112;-86
2022/05/22 03:31:18;903963.00;3.01;1563.08;40171.00;0.13;70.18;;;;;17.40;1.00;;;;;;2264833;61;1911;-88
2022/05/22 03:33:46;619506.00;2.07;1067.91;41146.00;0.14;71.87;;;;;17.10;1.00;;;;;;2264848;61;1410;-86
2022/05/22 03:36:14;647113.00;2.16;1115.64;19973.00;0.07;35.22;;;;;17.00;1.00;;;;;;2264764;61;1601;-88
2022/05/22 03:38:41;888954.00;2.96;1536.73;60478.00;0.20;105.30;;;;;16.60;1.00;;;;;;2264818;61;1199;-85
2022/05/22 03:41:08;971175.00;3.24;1681.49;0.00;0.00;0.62;;;;;16.30;1.00;;;;;;2264576;61;1042;-85
2022/05/22 03:43:35;618343.00;2.06;1065.90;77699.00;0.26;135.06;;;;;15.80;1.00;;;;;;2264729;61;1407;-87
2022/05/22 03:46:02;902956.00;3.01;1561.31;31076.00;0.10;54.45;;;;;15.60;1.00;;;;;;2264745;61;2136;-86
2022/05/22 03:48:29;1093437.00;3.64;1898.69;108740.00;0.36;188.66;;;;;15.60;1.00;;;;;;2264661;61;1223;-85
2022/05/22 03:50:56;696224.00;2.32;1200.69;44350.00;0.15;77.41;;;;;15.40;1.00;;;;;;2264713;61;2000;-87
2022/05/22 03:53:25;940597.00;3.14;1627.54;105236.00;0.35;182.61;;;;;15.20;1.00;;;;;;2264612;61;1565;-87
2022/05/22 03:55:52;612696.00;2.04;1056.15;23565.00;0.08;41.44;;;;;15.40;1.00;;;;;;2264648;61;1634;-85
2022/05/22 03:58:19;910260.00;3.03;1574.15;124063.00;0.41;215.09;;;;;15.40;1.00;;;;;;2264732;61;1375;-88
2022/05/22 04:00:46;708995.00;2.36;1222.84;4741.00;0.02;8.84;;;;;15.50;1.00;;;;;;2264660;61;2267;-87
2022/05/22 04:03:13;766821.00;2.56;1323.32;17193.00;0.06;30.41;;;;;15.40;1.00;;;;;;2264689;61;1575;-89
2022/05/22 04:05:41;416268.00;1.39;717.77;37699.00;0.13;65.91;;;;;15.40;1.00;;;;;;2264666;61;1152;-90
2022/05/22 04:08:08;620563.00;2.07;1069.74;98880.00;0.33;171.64;;;;;15.50;1.00;;;;;;2264746;61;1067;-88
2022/05/22 04:10:38;606505.00;2.02;1045.45;23521.00;0.08;41.37;;;;;15.50;1.00;;;;;;2264668;61;1725;-87
2022/05/22 04:13:05;667465.00;2.22;1150.86;12299.00;0.04;21.93;;;;;16.00;1.00;;;;;;2264605;61;1942;-88
2022/05/22 04:15:32;1216376.00;4.05;2119.86;67543.00;0.23;117.51;;;;;16.30;1.00;;;;;;2264715;61;1247;-88
2022/05/22 04:17:59;663795.00;2.21;1144.51;26922.00;0.09;47.25;;;;;16.50;1.00;;;;;;2264733;61;1144;-87
2022/05/22 04:20:27;602462.00;2.01;1038.47;13190.00;0.04;23.48;;;;;16.90;1.00;;;;;;2264705;61;1064;-87
2022/05/22 04:25:39;274035.00;0.91;473.28;0.00;0.00;0.62;;;;;17.70;1.00;;;;;;2264797;61;785;-89
2022/05/22 04:28:06;636798.00;2.12;1097.80;24241.00;0.08;42.61;;;;;17.50;1.00;;;;;;2264643;61;1569;-89
2022/05/22 04:30:34;839477.00;2.80;1450.06;34550.00;0.12;60.46;;;;;17.90;1.00;;;;;;2264652;61;1460;-87
2022/05/22 04:33:02;800013.00;2.67;1381.15;81322.00;0.27;141.32;;;;;18.30;1.00;;;;;;2264555;61;2015;-87
2022/05/22 04:35:29;1040033.00;3.47;1803.51;101106.00;0.34;175.48;;;;;18.60;1.00;;;;;;2264664;61;1141;-85
2022/05/22 04:38:02;565594.00;1.89;974.85;86079.00;0.29;149.54;;;;;18.70;1.00;;;;;;2264633;61;1411;-86
2022/05/22 04:40:29;719727.00;2.40;1241.46;27531.00;0.09;48.31;;;;;19.10;1.00;;;;;;2264579;61;1536;-89
2022/05/22 04:42:57;867139.00;2.89;1498.48;51647.00;0.17;90.03;;;;;19.10;1.00;;;;;;2264596;61;1407;-88
2022/05/22 04:45:25;1297444.00;4.32;2267.43;139342.00;0.46;241.44;;;;;18.70;1.00;;;;;;2264567;61;1059;-86
2022/05/22 04:47:52;1574347.00;5.25;2783.81;168638.00;0.56;291.92;;;;;18.10;1.00;;;;;;2264510;61;1133;-89
2022/05/22 04:50:19;769147.00;2.56;1327.37;99234.00;0.33;172.25;;;;;17.80;1.00;;;;;;2264567;61;1107;-88
2022/05/22 04:52:46;857263.00;2.86;1481.18;122017.00;0.41;211.56;;;;;17.80;1.00;;;;;;2264443;61;2001;-88
2022/05/22 04:55:14;536609.00;1.79;924.88;101560.00;0.34;176.26;;;;;18.00;1.00;;;;;;2264507;61;1055;-87
2022/05/22 04:57:41;117993784.00;393.31;66544448.00;117474776.00;391.58;65669416.00;;;;;17.50;1.00;;;;;;2264469;61;1524;-87
2022/05/22 05:00:12;854250.00;2.85;1475.91;223707.00;0.75;386.72;;;;;18.00;1.00;;;;;;2264517;61;926;-85
2022/05/22 05:02:39;556193.00;1.85;958.64;88657.00;0.30;153.99;;;;;18.20;1.00;;;;;;2264541;61;1605;-84
2022/05/22 05:05:08;880654.00;2.94;1522.17;276611.00;0.92;477.71;;;;;18.80;1.00;;;;;;2264524;61;1057;-87
2022/05/22 05:07:37;342847.00;1.14;591.57;108158.00;0.36;187.65;;;;;19.00;1.00;;;;;;2264454;61;1115;-87
2022/05/22 05:10:05;119599336.00;398.66;69300544.00;91883.00;0.31;159.56;;;;;18.80;1.00;;;;;;2264506;61;1150;-86
2022/05/22 05:12:36;602222.00;2.01;1038.06;105752.00;0.35;183.50;;;;;18.70;1.00;;;;;;2264345;61;2010;-87
2022/05/22 05:15:03;1009482.00;3.36;1749.27;184746.00;0.62;319.66;;;;;18.90;1.00;;;;;;2264330;61;1680;-86
2022/05/22 05:17:32;685825.00;2.29;1182.67;153920.00;0.51;266.56;;;;;19.10;1.00;;;;;;2264478;61;1075;-89
2022/05/22 05:19:59;807411.00;2.69;1394.05;97911.00;0.33;169.97;;;;;19.50;1.00;;;;;;2264437;61;1119;-89
2022/05/22 05:22:26;596479.00;1.99;1028.14;85554.00;0.29;148.63;;;;;19.40;1.00;;;;;;2264470;61;1414;-86
2022/05/22 05:24:53;848503.00;2.83;1465.85;131241.00;0.44;227.47;;;;;19.50;1.00;;;;;;2264506;61;1105;-85
2022/05/22 05:27:20;610892.00;2.04;1053.03;112664.00;0.38;195.43;;;;;19.60;1.00;;;;;;2264548;61;1105;-86
2022/05/22 05:29:47;573773.00;1.91;988.96;116392.00;0.39;201.86;;;;;19.90;1.00;;;;;;2264448;61;1255;-85
2022/05/22 05:32:18;305910.00;1.02;528.08;80044.00;0.27;139.11;;;;;20.10;1.00;;;;;;2264331;61;1999;-87
2022/05/22 05:34:47;850032.00;2.83;1468.52;131992.00;0.44;228.76;;;;;20.50;1.00;;;;;;2264316;61;1456;-87
2022/05/22 05:37:14;1024306.00;3.41;1775.57;178926.00;0.60;309.64;;;;;21.10;1.00;;;;;;2264363;61;1112;-88
2022/05/22 05:39:41;897206.00;2.99;1551.21;119941.00;0.40;207.98;;;;;22.50;1.00;;;;;;2264532;61;1106;-87
2022/05/22 05:42:08;566889.00;1.89;977.08;83821.00;0.28;145.64;;;;;24.10;1.00;;;;;;2264423;61;1078;-87
2022/05/22 05:44:36;503073.00;1.68;867.11;87753.00;0.29;152.43;;;;;25.40;1.00;;;;;;2264427;61;1270;-85
2022/05/22 05:47:03;500615.00;1.67;862.88;74558.00;0.25;129.64;;;;;26.20;1.00;;;;;;2264453;61;1011;-86
2022/05/22 05:49:30;198302.00;0.66;343.00;71308.00;0.24;124.02;;;;;27.00;1.00;;;;;;2264434;61;1120;-88
2022/05/22 05:51:59;188569.00;0.63;326.24;77223.00;0.26;134.24;;;;;27.60;1.00;;;;;;2264427;61;1994;-86
2022/05/22 05:54:26;523364.00;1.74;902.06;97018.00;0.32;168.42;;;;;28.20;1.00;;;;;;2264347;61;2168;-85
2022/05/22 05:56:53;323621.00;1.08;558.52;72652.00;0.24;126.34;;;;;28.50;1.00;;;;;;2264414;61;1077;-87
2022/05/22 05:59:20;266678.00;0.89;460.63;73593.00;0.25;127.97;;;;;28.90;1.00;;;;;;2264396;61;1425;-87
2022/05/22 06:01:46;353401.00;1.18;609.71;73403.00;0.24;127.64;;;;;29.60;1.00;;;;;;2264287;61;1175;-87
2022/05/22 06:04:14;188474.00;0.63;326.08;76855.00;0.26;133.60;;;;;29.60;1.00;;;;;;2264335;61;1395;-86
2022/05/22 06:06:41;172933.00;0.58;299.32;61110.00;0.20;106.40;;;;;29.70;1.00;;;;;;2264319;61;1071;-85
2022/05/22 06:09:09;222224.00;0.74;384.17;74631.00;0.25;129.76;;;;;29.70;1.00;;;;;;2264148;61;1097;-89
2022/05/22 06:11:36;415203.00;1.38;715.94;75297.00;0.25;130.91;;;;;30.30;1.00;;;;;;2264356;61;1914;-87
2022/05/22 06:14:03;186929.00;0.62;323.42;78675.00;0.26;136.75;;;;;30.50;1.00;;;;;;2264374;61;1393;-89
2022/05/22 06:16:31;383579.00;1.28;661.58;107662.00;0.36;186.80;;;;;30.00;1.00;;;;;;2264239;61;1017;-85
2022/05/22 06:18:58;171789.00;0.57;297.35;68435.00;0.23;119.06;;;;;30.10;1.00;;;;;;2264338;61;1179;-87
2022/05/22 06:21:25;268930.00;0.90;464.50;64504.00;0.22;112.26;;;;;30.20;1.00;;;;;;2264320;61;1114;-85
2022/05/22 06:23:52;12530.00;0.04;22.33;0.00;0.00;0.62;;;;;30.30;1.00;;;;;;2264313;61;1286;-85
2022/05/22 06:26:21;0.00;0.00;0.62;0.00;0.00;0.62;;;;;30.20;1.00;;;;;;2263475;61;1102;-84
2022/05/22 06:28:48;40650.00;0.14;71.01;0.00;0.00;0.62;;;;;29.80;1.00;;;;;;2264175;61;1108;-87
2022/05/22 06:31:16;0.00;0.00;0.62;0.00;0.00;0.62;;;;;29.20;1.00;;;;;;2264121;61;1275;-86
2022/05/22 06:33:43;77155.00;0.26;134.12;0.00;0.00;0.62;;;;;28.90;1.00;;;;;;2264220;61;2007;-86
2022/05/22 06:36:13;73791.00;0.25;128.31;6975.00;0.02;12.71;;;;;29.10;1.00;;;;;;2263848;61;1179;-85
2022/05/22 06:41:27;26898.00;0.09;47.21;0.00;0.00;0.62;;;;;29.80;1.00;;;;;;2263761;61;825;-82
2022/05/22 06:43:54;0.00;0.00;0.62;0.00;0.00;0.62;;;;;30.70;1.00;;;;;;2263824;61;1358;-84
2022/05/22 06:46:30;0.00;0.00;0.62;0.00;0.00;0.62;;;;;31.50;1.00;;;;;;2263694;61;1160;-84
2022/05/22 06:48:58;252282.00;0.84;435.88;114265.00;0.38;198.19;;;;;32.20;1.00;;;;;;2263800;61;1087;-83
2022/05/22 06:51:25;0.00;0.00;0.62;0.00;0.00;0.62;;;;;32.10;1.00;;;;;;2264085;61;1565;-88
2022/05/22 06:53:52;151902.00;0.51;263.09;0.00;0.00;0.62;;;;;32.80;1.00;;;;;;2264154;61;2001;-87
2022/05/22 06:56:18;271192.00;0.90;468.39;56266.00;0.19;98.02;;;;;33.20;1.00;;;;;;2263959;61;1116;-85
2022/05/22 06:58:47;326149.00;1.09;562.87;79992.00;0.27;139.02;;;;;33.70;1.00;;;;;;2263747;61;1126;-83
2022/05/22 07:01:16;0.00;0.00;0.62;0.00;0.00;0.62;;;;;33.90;1.00;;;;;;2264089;61;1144;-82
2022/05/22 07:03:43;16484.00;0.05;29.18;0.00;0.00;0.62;;;;;33.80;1.00;;;;;;2263998;61;1564;-82
2022/05/22 07:06:10;165257.00;0.55;286.10;27136.00;0.09;47.63;;;;;33.80;1.00;;;;;;2264223;61;1168;-85
2022/05/22 07:08:37;391114.00;1.30;674.53;124368.00;0.41;215.62;;;;;34.00;1.00;;;;;;2264104;61;1112;-86
2022/05/22 07:13:49;222358.00;0.74;384.40;28988.00;0.10;50.83;;;;;33.70;1.00;;;;;;2263845;61;1924;-83
2022/05/22 07:16:16;141264.00;0.47;244.75;0.00;0.00;0.62;;;;;33.70;1.00;;;;;;2263856;61;1009;-85
2022/05/22 07:18:43;154854.00;0.52;268.17;0.00;0.00;0.62;;;;;33.60;1.00;;;;;;2263927;61;1034;-87
2022/05/22 07:21:10;151980.00;0.51;263.22;0.00;0.00;0.62;;;;;33.00;1.00;;;;;;2263970;61;1787;-86
2022/05/22 07:23:37;212877.00;0.71;368.09;0.00;0.00;0.62;;;;;33.30;1.00;;;;;;2263910;61;1650;-83
2022/05/22 07:26:05;238206.00;0.79;411.67;10978.00;0.04;19.64;;;;;33.20;1.00;;;;;;2263956;61;1062;-85
2022/05/22 07:28:34;124104.00;0.41;215.16;0.00;0.00;0.62;;;;;33.90;1.00;;;;;;2264023;61;1081;-86
2022/05/22 07:31:02;86333.00;0.29;149.98;0.00;0.00;0.62;;;;;33.80;1.00;;;;;;2264034;61;1015;-86
2022/05/22 07:33:29;288617.00;0.96;498.35;51379.00;0.17;89.57;;;;;33.70;1.00;;;;;;2263734;61;2008;-85
2022/05/22 07:35:58;10067.00;0.03;18.07;0.00;0.00;0.62;;;;;33.70;1.00;;;;;;2263914;61;1170;-86
2022/05/22 07:38:26;344831.00;1.15;594.98;44542.00;0.15;77.75;;;;;34.40;1.00;;;;;;2264131;61;1142;-87
2022/05/22 07:40:54;68281.00;0.23;118.79;0.00;0.00;0.62;;;;;35.20;1.00;;;;;;2264671;61;1039;-83
2022/05/22 07:43:22;11280.00;0.04;20.17;0.00;0.00;0.62;;;;;35.50;1.00;;;;;;2264742;61;1399;-83
2022/05/22 07:45:49;350219.00;1.17;604.24;0.00;0.00;0.62;;;;;34.70;1.00;;;;;;2264754;61;1391;-85
2022/05/22 07:48:17;135146.00;0.45;234.20;0.00;0.00;0.62;;;;;34.40;1.00;;;;;;2264692;61;1104;-83
2022/05/22 07:50:45;0.00;0.00;0.62;0.00;0.00;0.62;;;;;33.80;1.00;;;;;;2264661;61;1078;-84
2022/05/22 07:53:12;0.00;0.00;0.62;0.00;0.00;0.62;;;;;33.00;1.00;;;;;;2264599;61;2004;-83
2022/05/22 07:55:40;128214.00;0.43;222.25;0.00;0.00;0.62;;;;;33.00;1.00;;;;;;2264714;61;1491;-83
2022/05/22 07:58:07;151051.00;0.50;261.62;0.00;0.00;0.62;;;;;33.40;1.00;;;;;;2264520;61;1432;-81
2022/05/22 08:00:34;221839.00;0.74;383.51;0.00;0.00;0.62;;;;;33.20;1.00;;;;;;2264408;61;1499;-82
2022/05/22 08:03:08;875062.00;2.92;1512.36;97127.00;0.32;168.61;;;;;33.00;1.00;;;;;;2264641;61;1282;-84
2022/05/22 08:05:37;1288064.00;4.29;2250.28;80087.00;0.27;139.19;;;;;32.50;1.00;;;;;;2264680;61;1028;-83
2022/05/22 08:08:04;757943.00;2.53;1307.87;119619.00;0.40;207.43;;;;;32.60;1.00;;;;;;2264578;61;1629;-87
2022/05/22 08:13:15;131433512.00;438.11;91999608.00;37731.00;0.13;65.96;;;;;32.20;1.00;;;;;;2264529;61;1926;-85
2022/05/22 08:15:44;105768.00;0.35;183.53;0.00;0.00;0.62;;;;;32.20;1.00;;;;;;2264534;61;1002;-87
2022/05/22 08:18:12;182843.00;0.61;316.39;0.00;0.00;0.62;;;;;32.20;1.00;;;;;;2264497;61;1353;-85
2022/05/22 08:20:43;163644.00;0.55;283.32;0.00;0.00;0.62;;;;;32.30;1.00;;;;;;2264288;61;1232;-85
2022/05/22 08:23:15;205111.00;0.68;354.72;819.00;0.00;2.04;;;;;32.70;1.00;;;;;;2264533;61;1503;-87
2022/05/22 08:25:42;161118.00;0.54;278.97;0.00;0.00;0.62;;;;;32.20;1.00;;;;;;2264585;61;1191;-84
2022/05/22 08:28:09;91638.00;0.31;159.14;0.00;0.00;0.62;;;;;31.80;1.00;;;;;;2264538;61;1139;-84
2022/05/22 08:30:37;208261.00;0.69;360.14;0.00;0.00;0.62;;;;;32.20;1.00;;;;;;2264578;61;1156;-86
2022/05/22 08:33:05;0.00;0.00;0.62;0.00;0.00;0.62;;;;;32.00;1.00;;;;;;2264479;61;1916;-87
2022/05/22 08:35:35;112393.00;0.37;194.96;0.00;0.00;0.62;;;;;31.30;1.00;;;;;;2264621;61;1082;-83
2022/05/22 08:38:04;40062.00;0.13;70.00;0.00;0.00;0.62;;;;;30.90;1.00;;;;;;2264578;61;1148;-87
2022/05/22 08:40:44;0.00;0.00;0.62;0.00;0.00;0.62;;;;;31.00;1.00;;;;;;2264533;61;1188;-84
2022/05/22 08:43:15;0.00;0.00;0.62;0.00;0.00;0.62;;;;;31.50;1.00;;;;;;2264487;61;1333;-84
2022/05/22 08:45:45;67397.00;0.22;117.26;0.00;0.00;0.62;;;;;31.90;1.00;;;;;;2264619;61;1224;-86
2022/05/22 08:48:17;84320.00;0.28;146.50;0.00;0.00;0.62;;;;;31.40;1.00;;;;;;2264593;61;953;-88
2022/05/22 08:50:47;214436.00;0.71;370.77;83468.00;0.28;145.03;;;;;30.60;1.00;;;;;;2264322;61;953;-88
2022/05/22 08:53:31;586939.00;1.96;1011.67;39910.00;0.13;69.73;;;;;30.40;1.00;;;;;;2264223;61;2298;-88
2022/05/22 08:58:59;672746.00;2.24;1160.01;74513.00;0.25;129.56;;;;;30.50;1.00;;;;;;2264650;61;729;-86
2022/05/22 09:01:48;234190.00;0.78;404.76;59496.00;0.20;103.61;;;;;30.50;1.00;;;;;;2264495;61;1032;-87
2022/05/22 09:04:28;314395.00;1.05;542.66;67762.00;0.23;117.89;;;;;30.70;1.00;;;;;;2264540;61;1381;-85
2022/05/22 09:07:05;298841.00;1.00;515.93;60614.00;0.20;105.54;;;;;31.00;1.00;;;;;;2264534;61;1071;-84
2022/05/22 09:09:38;167850.00;0.56;290.56;71712.00;0.24;124.72;;;;;30.80;1.00;;;;;;2264429;61;1095;-84
2022/05/22 09:12:21;0.00;0.00;0.62;0.00;0.00;0.62;;;;;31.00;1.00;;;;;;2264520;61;1059;-85
2022/05/22 09:15:02;168068.00;0.56;290.94;0.00;0.00;0.62;;;;;31.10;1.00;;;;;;2264574;61;1014;-91
2022/05/22 09:17:34;372.00;0.00;1.26;0.00;0.00;0.62;;;;;31.20;1.00;;;;;;2264490;61;931;-88
2022/05/22 09:20:10;0.00;0.00;0.62;0.00;0.00;0.62;;;;;30.70;1.00;;;;;;2264351;61;1034;-88
2022/05/22 09:22:49;375419.00;1.25;647.55;122913.00;0.41;213.11;;;;;30.20;1.00;;;;;;2264378;61;1397;-83
2022/05/22 09:25:26;114037.00;0.38;197.80;0.00;0.00;0.62;;;;;29.60;1.00;;;;;;2264410;61;1368;-85
2022/05/22 09:28:05;761293.00;2.54;1313.70;46699.00;0.16;81.48;;;;;29.40;1.00;;;;;;2264503;61;1543;-85
2022/05/22 09:30:39;1579001.00;5.26;2792.67;201869.00;0.67;349.14;;;;;29.30;1.00;;;;;;2264459;61;952;-86
2022/05/22 09:33:17;1354198.00;4.51;2371.64;153207.00;0.51;265.33;;;;;28.30;1.00;;;;;;2264328;61;1923;-85
2022/05/22 09:35:57;1083877.00;3.61;1881.61;132583.00;0.44;229.78;;;;;28.40;1.00;;;;;;2264371;61;1137;-86
2022/05/22 09:38:44;205039.00;0.68;354.60;69548.00;0.23;120.98;;;;;28.50;1.00;;;;;;2264340;61;1179;-83
2022/05/22 09:41:23;383701.00;1.28;661.79;104705.00;0.35;181.69;;;;;28.50;1.00;;;;;;2263884;61;1018;-86
2022/05/22 09:44:38;178895.00;0.60;309.59;0.00;0.00;0.62;;;;;28.40;1.00;;;;;;2264077;61;1808;-85
2022/05/22 09:47:29;370305.00;1.23;638.76;73910.00;0.25;128.52;;;;;29.00;1.00;;;;;;2255795;61;1563;-86
2022/05/22 09:50:16;389784.00;1.30;672.24;70702.00;0.24;122.97;;;;;29.20;1.00;;;;;;2264388;61;1176;-85
2022/05/22 09:52:54;453408.00;1.51;781.64;6817.00;0.02;12.43;;;;;29.50;1.00;;;;;;2264381;61;2012;-87
2022/05/22 09:55:32;170011.00;0.57;294.29;0.00;0.00;0.62;;;;;29.60;1.00;;;;;;2264357;61;1466;-90
2022/05/22 09:58:17;227586.00;0.76;393.40;0.00;0.00;0.62;;;;;29.30;1.00;;;;;;2264327;61;1152;-86
2022/05/22 10:00:54;353648.00;1.18;610.13;0.00;0.00;0.62;;;;;28.50;1.00;;;;;;2291300;56;3770;-87
2022/05/22 10:03:30;511692.00;1.71;881.96;0.00;0.00;0.62;;;;;28.40;1.00;;;;;;2299706;55;3774;-89
2022/05/22 10:11:09;2357118.00;7.86;4385.25;224954.00;0.75;388.87;;;;;28.60;1.00;;;;;;2269782;61;1389;-89
2022/05/22 10:13:54;1531884.00;5.11;2703.26;90957.00;0.30;157.96;;;;;29.00;1.00;;;;;;2268265;61;1939;-87